createdAt,value
2022-11-19T00:00:02.453Z,64
2022-11-19T00:20:03.165Z,64
2022-11-19T00:40:02.686Z,64
2022-11-19T01:00:03.145Z,64
2022-11-19T01:20:02.893Z,64
2022-11-19T01:40:02.560Z,64
2022-11-19T02:00:02.816Z,64
2022-11-19T02:20:02.746Z,64
2022-11-19T02:40:03.206Z,64
2022-11-19T03:00:02.599Z,64
2022-11-19T03:20:04.515Z,63
2022-11-19T03:40:03.181Z,63
2022-11-19T04:00:02.709Z,63
2022-11-19T04:20:02.540Z,63
2022-11-19T04:40:02.875Z,64
2022-11-19T05:00:02.391Z,64
2022-11-19T05:20:03.014Z,64
2022-11-19T05:40:02.560Z,63
2022-11-19T06:00:02.962Z,63
2022-11-19T06:20:02.525Z,63
2022-11-19T06:40:03.001Z,63
2022-11-19T07:00:02.429Z,64
2022-11-19T07:20:03.446Z,64
2022-11-19T07:40:02.903Z,65
2022-11-19T08:00:02.396Z,67
2022-11-19T08:20:03.698Z,69
2022-11-19T08:40:03.244Z,70
2022-11-19T09:00:06.776Z,71
2022-11-19T09:20:02.760Z,71
2022-11-19T09:40:03.286Z,71
2022-11-19T10:00:03.017Z,71
2022-11-19T10:20:02.947Z,70
2022-11-19T10:40:02.599Z,69
2022-11-19T11:00:04.177Z,68
2022-11-19T11:20:02.987Z,65
2022-11-19T11:40:02.921Z,62
2022-11-19T12:00:02.659Z,61
2022-11-19T12:20:02.679Z,60
2022-11-19T12:40:03.237Z,62
2022-11-19T13:00:02.798Z,64
2022-11-19T13:20:04.851Z,66
2022-11-19T13:40:02.551Z,67
2022-11-19T14:00:03.210Z,68
2022-11-19T14:20:03.111Z,70
2022-11-19T14:40:02.706Z,70
2022-11-19T15:00:03.489Z,71
2022-11-19T15:20:03.560Z,72
2022-11-19T15:40:03.416Z,74
2022-11-19T16:00:03.570Z,75
2022-11-19T16:20:02.664Z,75
2022-11-19T16:40:03.286Z,76
2022-11-19T17:00:02.788Z,76
2022-11-19T17:20:02.759Z,77
2022-11-19T17:40:03.543Z,77
2022-11-19T18:00:03.060Z,77
2022-11-19T18:20:02.720Z,78
2022-11-19T18:40:03.147Z,78
2022-11-19T19:00:02.534Z,78
2022-11-19T19:20:03.204Z,79
2022-11-19T19:40:02.571Z,79
2022-11-19T20:00:03.027Z,79
2022-11-19T20:20:02.770Z,79
2022-11-19T20:40:03.225Z,80
2022-11-19T21:00:02.634Z,80
2022-11-19T21:20:02.511Z,80
2022-11-19T21:40:03.035Z,80
2022-11-19T22:00:02.571Z,80
2022-11-19T22:20:02.688Z,80
2022-11-19T22:40:03.267Z,80
2022-11-19T23:00:03.026Z,80
2022-11-19T23:20:05.167Z,80
2022-11-19T23:40:02.735Z,80
